createdAt,value
2019-02-07T00:09:48.351Z,40
2019-02-07T00:19:55.237Z,43
2019-02-07T00:30:03.376Z,36
2019-02-07T00:40:09.701Z,41
2019-02-07T00:45:28.240Z,35
2019-02-07T00:55:32.880Z,38
2019-02-07T01:05:40.293Z,32
2019-02-07T01:15:47.620Z,34
2019-02-07T01:25:56.929Z,32
2019-02-07T01:36:04.199Z,28
2019-02-07T01:46:14.059Z,29
2019-02-07T01:56:20.316Z,39
2019-02-07T02:06:27.722Z,34
2019-02-07T02:16:36.025Z,41
2019-02-07T02:26:43.406Z,36
2019-02-07T02:36:55.157Z,25
2019-02-07T02:46:16.343Z,19
2019-02-07T02:56:27.754Z,15
2019-02-07T03:06:35.773Z,16
2019-02-07T03:16:44.605Z,15
2019-02-07T03:26:52.342Z,16
2019-02-07T03:36:58.981Z,12
2019-02-07T03:47:08.142Z,12
2019-02-07T03:57:17.400Z,14
2019-02-07T04:07:24.624Z,11
2019-02-07T04:16:49.634Z,10
2019-02-07T04:26:54.865Z,8
2019-02-07T04:37:04.027Z,8
2019-02-07T04:47:12.388Z,8
2019-02-07T04:57:20.708Z,8
2019-02-07T05:07:28.864Z,7
2019-02-07T05:17:38.197Z,8
2019-02-07T05:27:48.142Z,8
2019-02-07T05:37:56.097Z,7
2019-02-07T05:48:04.303Z,7
2019-02-07T05:58:10.456Z,6
2019-02-07T06:08:17.238Z,7
2019-02-07T06:17:37.680Z,5
2019-02-07T06:27:45.254Z,6
2019-02-07T06:35:04.147Z,6
2019-02-07T06:45:11.564Z,6
2019-02-07T06:55:20.031Z,6
2019-02-07T07:05:31.622Z,5
2019-02-07T07:15:40.986Z,5
2019-02-07T07:25:48.590Z,6
2019-02-07T07:35:56.872Z,5
2019-02-07T07:46:07.956Z,6
2019-02-07T07:56:15.513Z,5
2019-02-07T08:06:25.934Z,5
2019-02-07T08:16:35.610Z,5
2019-02-07T08:26:42.178Z,7
2019-02-07T08:36:49.810Z,7
2019-02-07T08:47:00.429Z,7
2019-02-07T08:57:08.582Z,4
2019-02-07T09:03:25.037Z,6
2019-02-07T09:13:34.920Z,5
2019-02-07T09:18:51.747Z,6
2019-02-07T09:28:57.315Z,7
2019-02-07T09:39:03.635Z,6
2019-02-07T09:49:12.525Z,4
2019-02-07T09:59:20.637Z,6
2019-02-07T10:09:31.340Z,12
2019-02-07T10:16:49.698Z,14
2019-02-07T10:22:59.359Z,12
2019-02-07T10:33:02.417Z,13
2019-02-07T10:36:16.421Z,11
2019-02-07T10:46:24.118Z,11
2019-02-07T10:50:42.097Z,10
2019-02-07T11:00:52.247Z,6
2019-02-07T11:11:03.763Z,7
2019-02-07T11:20:26.654Z,6
2019-02-07T11:28:45.150Z,8
2019-02-07T11:38:54.425Z,7
2019-02-07T11:49:07.591Z,7
2019-02-07T11:49:48.739Z,7
2019-02-07T11:57:04.253Z,14
2019-02-07T11:58:17.229Z,11
2019-02-07T12:01:13.131Z,9
2019-02-07T12:11:19.873Z,12
2019-02-07T12:21:21.660Z,7
2019-02-07T12:31:30.742Z,14
2019-02-07T12:41:37.740Z,8
2019-02-07T12:51:47.365Z,15
2019-02-07T13:01:10.892Z,12
2019-02-07T13:11:31.820Z,13
2019-02-07T13:22:03.843Z,9
2019-02-07T13:31:20.601Z,10
2019-02-07T13:41:29.236Z,12
2019-02-07T13:51:36.867Z,11
2019-02-07T13:57:57.172Z,15
2019-02-07T14:08:03.981Z,17
2019-02-07T14:09:16.898Z,20
2019-02-07T14:14:36.428Z,20
2019-02-07T14:23:53.850Z,17
2019-02-07T14:31:10.555Z,10
2019-02-07T14:34:21.267Z,13
2019-02-07T14:44:30.658Z,7
2019-02-07T14:46:51.234Z,9
2019-02-07T14:56:57.888Z,7
2019-02-07T15:06:28.985Z,10
2019-02-07T15:16:31.286Z,14
2019-02-07T15:26:38.521Z,13
2019-02-07T15:36:52.304Z,11
2019-02-07T15:46:59.297Z,12
2019-02-07T15:51:11.557Z,25
2019-02-07T16:01:21.050Z,23
2019-02-07T16:11:28.482Z,29
2019-02-07T16:21:36.500Z,17
2019-02-07T16:32:23.074Z,15
2019-02-07T16:42:41.543Z,20
2019-02-07T16:52:48.774Z,16
2019-02-07T17:02:56.871Z,17
2019-02-07T17:07:16.676Z,18
2019-02-07T17:17:23.102Z,28
2019-02-07T17:27:33.397Z,11
2019-02-07T17:37:20.657Z,8
2019-02-07T17:47:23.147Z,20
2019-02-07T17:55:02.039Z,24
2019-02-07T18:02:19.514Z,78
2019-02-07T18:05:28.453Z,64
2019-02-07T18:15:38.755Z,23
2019-02-07T18:19:55.287Z,20
2019-02-07T18:29:56.662Z,19
2019-02-07T18:33:14.280Z,14
2019-02-07T18:43:25.724Z,16
2019-02-07T18:53:32.224Z,15
2019-02-07T19:03:40.358Z,11
2019-02-07T19:13:46.161Z,9
2019-02-07T19:23:54.624Z,11
2019-02-07T19:34:04.513Z,11
2019-02-07T19:44:09.906Z,7
2019-02-07T19:54:19.048Z,10
2019-02-07T20:04:25.178Z,7
2019-02-07T20:14:32.314Z,11
2019-02-07T20:25:23.776Z,6
2019-02-07T20:35:30.407Z,7
2019-02-07T20:45:39.521Z,6
2019-02-07T20:55:47.959Z,7
2019-02-07T21:05:54.860Z,5
2019-02-07T21:16:02.592Z,6
2019-02-07T21:26:13.926Z,6
2019-02-07T21:36:17.853Z,9
2019-02-07T21:46:25.411Z,6
2019-02-07T21:56:35.060Z,7
2019-02-07T21:58:51.073Z,8
2019-02-07T22:02:04.789Z,7
2019-02-07T22:12:10.800Z,5
2019-02-07T22:19:32.751Z,4
2019-02-07T22:26:49.994Z,4
2019-02-07T22:36:55.442Z,5
2019-02-07T22:47:03.184Z,5
2019-02-07T22:57:22.116Z,4
2019-02-07T23:07:29.538Z,4
2019-02-07T23:17:38.257Z,4
2019-02-07T23:27:47.882Z,3
2019-02-07T23:37:55.258Z,3
2019-02-07T23:48:03.728Z,3
2019-02-07T23:58:13.018Z,5
